METAR Data
IDs: Format: Raw Decoded Include TAF

Data at: 0236 UTC 18 Jun 2019

PAGA 180056Z AUTO 06008KT 10SM CLR 21/07 A2959 RMK AO2 SLP020 T02060072
PAGA 172356Z AUTO 05011G15KT 9SM FEW065 BKN090 19/06 A2961 RMK AO2 SLP027 T01890061 10211 20161 53004
PAGA 172256Z AUTO 05010G20KT 020V080 9SM FEW060 BKN080 19/06 A2960 RMK AO2 PK WND 03026/2220 SLP026 T01890056
PAGA 172156Z AUTO VRB06KT 9SM OVC085 19/08 A2959 RMK AO2 SLP021 T01940083
PAGA 172056Z AUTO VRB03KT 9SM CLR 18/07 A2960 RMK AO2 SLP022 T01830067 56009
PAGA 171956Z AUTO 29006KT 9SM CLR 18/07 A2960 RMK AO2 SLP025 T01780072
PAGA 171856Z AUTO 30006KT 10SM CLR 16/07 A2961 RMK AO2 SLP027 T01610067
PAGA 171756Z AUTO 30006KT 10SM CLR 16/07 A2962 RMK AO2 SLP032 T01610072 10161 20111 56010
PAGA 171656Z AUTO 28004KT 10SM CLR 16/08 A2963 RMK AO2 SLP032 T01560078
PAGA 171556Z AUTO 28003KT 10SM CLR 15/07 A2964 RMK AO2 SLP037 T01500072
PAGA 171456Z AUTO 25005KT 10SM CLR 13/08 A2966 RMK AO2 SLP042 T01330083 58008
PAGA 171356Z AUTO 00000KT 10SM CLR 13/08 A2967 RMK AO2 SLP046 T01280083
PAGA 171256Z AUTO 00000KT 10SM CLR 12/07 A2967 RMK AO2 SLP048 T01170067
PAGA 171156Z AUTO 00000KT 10SM CLR 13/07 A2968 RMK AO2 SLP051 T01330072 10233 20133 58003
PAGA 171056Z AUTO 36004KT 10SM CLR 16/07 A2969 RMK AO2 SLP052 T01560072
PAGA 170956Z AUTO 34004KT 10SM CLR 16/07 A2969 RMK AO2 SLP054 T01610072
PAGA 170856Z AUTO 34005KT 10SM CLR 18/07 A2969 RMK AO2 SLP053 T01780067 402440117 55002
PAGA 170756Z AUTO 34003KT 10SM CLR 20/06 A2968 RMK AO2 SLP052 T02000061
PAGA 170656Z AUTO 36004KT 10SM CLR 22/05 A2969 RMK AO2 SLP053 T02220050
PAGA 170556Z AUTO 01008KT 10SM CLR 23/04 A2969 RMK AO2 SLP055 T02330044 10244 20233 56005
PAGA 170456Z AUTO VRB06G14KT 9SM CLR 24/04 A2969 RMK AO2 SLP055 T02390044
PAGA 170356Z AUTO 34007G14KT 9SM CLR 24/04 A2970 RMK AO2 SLP057 T02390044
PAGA 170256Z AUTO 34008KT 300V010 9SM CLR 24/04 A2971 RMK AO2 SLP060 T02390044 56014
PAGA 170156Z AUTO 35009G14KT 320V020 10SM CLR 24/05 A2972 RMK AO2 SLP063 T02440050
PAGA 170056Z AUTO 36009KT 9SM CLR 24/04 A2974 RMK AO2 SLP070 T02440039
PAGA 162256Z AUTO VRB06KT 9SM CLR 23/06 A2976 RMK AO2 SLP078 T02280056
PAGA 162156Z AUTO VRB05KT 8SM CLR 22/06 A2978 RMK AO2 SLP083 T02220061
PAGA 162056Z AUTO 03008KT 8SM CLR 21/07 A2979 RMK AO2 SLP089 T02110067 58008
PAGA 161956Z AUTO 04009KT 10SM CLR 21/08 A2980 RMK AO2 SLP091 T02060078
PAGA 161856Z AUTO 03007KT 340V060 9SM CLR 19/08 A2981 RMK AO2 SLP095 T01890078
PAGA 161756Z AUTO VRB05KT 9SM BKN095 18/09 A2982 RMK AO2 SLP097 T01780094 10178 20117 58002
PAGA 161656Z AUTO VRB03KT 10SM OVC100 15/10 A2982 RMK AO2 SLP100 T01500100
PAGA 161556Z AUTO 33003KT 10SM BKN090 13/09 A2983 RMK AO2 SLP101 T01330094
PAGA 161456Z AUTO 01003KT 10SM CLR 12/09 A2982 RMK AO2 SLP100 T01220094 55003